Time;durP1;ratioP1;P1;durP2;ratioP2;P2;SDS_P1;SDS_P2;PMS_P1;PMS_P2;Temp;Humidity;BMP_temperature;BMP_pressure;BME280_temperature;BME280_humidity;BME280_pressure;Samples;Min_cycle;Max_cycle;Signal;HPM_P1;HPM_P2
2022/01/07 00:01:08;;;;;;;23.48;6.57;;;-0.20;99.90;;;;;;5009014;28;20390;-86
2022/01/07 00:03:37;;;;;;;22.60;6.30;;;-0.30;99.90;;;;;;5009119;28;20109;-86
2022/01/07 00:06:03;;;;;;;26.08;6.53;;;-0.20;99.90;;;;;;5008035;28;20027;-87
2022/01/07 00:08:30;;;;;;;22.60;6.75;;;-0.20;99.90;;;;;;5008954;28;20118;-86
2022/01/07 00:10:56;;;;;;;18.77;7.25;;;-0.20;99.90;;;;;;5008995;28;20034;-87
2022/01/07 00:13:23;;;;;;;12.10;5.38;;;-0.20;99.90;;;;;;5008785;28;20030;-86
2022/01/07 00:15:53;;;;;;;18.17;6.03;;;-0.20;99.90;;;;;;5008200;28;20493;-87
2022/01/07 00:18:19;;;;;;;;;;;-0.20;99.90;;;;;;5008067;28;20065;-87
2022/01/07 00:20:49;;;;;;;12.73;4.82;;;-0.20;99.90;;;;;;5008704;28;19905;-87
2022/01/07 00:23:15;;;;;;;15.18;5.18;;;-0.30;99.90;;;;;;4992547;28;20475;-86
2022/01/07 00:25:40;;;;;;;28.58;5.55;;;-0.20;99.90;;;;;;4982665;28;20084;-86
2022/01/07 00:28:06;;;;;;;19.15;6.28;;;-0.20;99.90;;;;;;4966461;28;20043;-86
2022/01/07 00:30:33;;;;;;;14.05;6.50;;;-0.30;99.90;;;;;;4970637;28;20088;-87
2022/01/07 00:32:59;;;;;;;16.33;5.20;;;-0.20;99.90;;;;;;5008371;28;20049;-87
2022/01/07 00:35:26;;;;;;;19.88;5.80;;;-0.20;99.90;;;;;;5004206;28;20500;-87
2022/01/07 00:37:54;;;;;;;24.00;5.97;;;-0.20;99.90;;;;;;4972300;28;20035;-87
2022/01/07 00:40:22;;;;;;;24.83;6.10;;;-0.20;99.90;;;;;;4978836;28;20113;-87
2022/01/07 00:42:50;;;;;;;22.50;5.88;;;-0.20;99.90;;;;;;5005050;28;20058;-86
2022/01/07 00:45:19;;;;;;;17.15;5.28;;;-0.20;99.90;;;;;;4992390;28;20034;-87
2022/01/07 00:47:45;;;;;;;16.77;5.38;;;-0.20;99.90;;;;;;4991877;28;20026;-86
2022/01/07 00:50:12;;;;;;;21.52;5.68;;;-0.20;99.90;;;;;;5006933;28;20061;-86
2022/01/07 00:52:41;;;;;;;13.35;5.05;;;-0.20;99.90;;;;;;5008127;28;20081;-86
2022/01/07 00:55:09;;;;;;;16.35;5.57;;;-0.20;99.90;;;;;;5007389;28;20058;-87
2022/01/07 00:57:34;;;;;;;17.35;5.40;;;-0.20;99.90;;;;;;4991454;28;20499;-87
2022/01/07 01:00:00;;;;;;;16.27;5.45;;;-0.10;99.90;;;;;;4991090;28;20037;-87
2022/01/07 01:02:32;;;;;;;19.50;5.95;;;-0.10;99.90;;;;;;5007971;28;20042;-86
2022/01/07 01:05:01;;;;;;;16.67;5.93;;;-0.10;99.90;;;;;;5007157;28;20026;-88
2022/01/07 01:07:27;;;;;;;18.42;4.93;;;-0.10;99.90;;;;;;4990538;28;20090;-86
2022/01/07 01:09:57;;;;;;;16.73;6.63;;;-0.10;99.90;;;;;;4991327;28;20499;-86
2022/01/07 01:12:23;;;;;;;16.03;5.43;;;-0.10;99.90;;;;;;4991196;28;20088;-86
2022/01/07 01:14:49;;;;;;;24.13;5.45;;;-0.10;99.90;;;;;;4990854;28;20166;-87
2022/01/07 01:17:18;;;;;;;14.60;5.28;;;-0.10;99.90;;;;;;5007278;28;20038;-87
2022/01/07 01:19:44;;;;;;;17.25;5.80;;;-0.10;99.90;;;;;;5007342;28;20456;-86
2022/01/07 01:22:16;;;;;;;21.58;6.40;;;-0.10;99.90;;;;;;5007613;28;20037;-85
2022/01/07 01:24:42;;;;;;;17.35;5.93;;;-0.10;99.90;;;;;;5007029;28;20088;-87
2022/01/07 01:27:13;;;;;;;15.55;6.47;;;-0.10;99.90;;;;;;5006922;28;20066;-86
2022/01/07 01:29:39;;;;;;;14.23;5.68;;;-0.20;99.90;;;;;;5007115;28;20582;-86
2022/01/07 01:32:10;;;;;;;18.67;5.90;;;-0.10;99.90;;;;;;5007589;28;20043;-87
2022/01/07 01:34:36;;;;;;;15.13;6.18;;;-0.10;99.90;;;;;;5006601;28;20069;-85
2022/01/07 01:37:09;;;;;;;21.35;5.60;;;-0.10;99.90;;;;;;4986740;28;20065;-86
2022/01/07 01:39:43;;;;;;;16.27;6.05;;;-0.20;99.90;;;;;;4986806;28;20034;-86
2022/01/07 01:42:12;;;;;;;29.10;5.60;;;-0.10;99.90;;;;;;4987698;28;20039;-87
2022/01/07 01:44:40;;;;;;;20.92;5.32;;;-0.10;99.90;;;;;;4985653;28;20026;-86
2022/01/07 01:47:10;;;;;;;12.18;4.65;;;-0.10;99.90;;;;;;5002825;28;20074;-87
2022/01/07 01:49:42;;;;;;;16.38;5.15;;;-0.10;99.90;;;;;;5001501;28;20121;-86
2022/01/07 01:52:09;;;;;;;17.00;5.00;;;-0.20;99.90;;;;;;5006891;28;20042;-86
2022/01/07 01:54:35;;;;;;;15.50;5.65;;;-0.10;99.90;;;;;;4989644;28;20046;-87
2022/01/07 01:57:01;;;;;;;16.10;4.75;;;-0.10;99.90;;;;;;4990148;28;20133;-86
2022/01/07 01:59:30;;;;;;;17.30;5.10;;;-0.20;99.90;;;;;;5006519;28;20117;-87
2022/01/07 02:01:56;;;;;;;21.48;5.72;;;-0.20;99.90;;;;;;4990303;28;20038;-86
2022/01/07 02:04:29;;;;;;;17.25;5.45;;;-0.20;99.90;;;;;;4973747;28;20026;-86
2022/01/07 02:06:56;;;;;;;17.00;6.35;;;-0.10;99.90;;;;;;5006068;28;20031;-86
2022/01/07 02:09:30;;;;;;;12.85;5.68;;;-0.10;99.90;;;;;;5006408;28;20037;-86
2022/01/07 02:11:58;;;;;;;24.08;6.18;;;-0.20;99.90;;;;;;5006934;28;20041;-86
2022/01/07 02:14:23;;;;;;;13.93;4.75;;;-0.20;99.90;;;;;;5005834;28;20036;-86
2022/01/07 02:16:49;;;;;;;12.50;5.78;;;-0.20;99.90;;;;;;4973521;28;20034;-86
2022/01/07 02:19:20;;;;;;;21.38;5.07;;;-0.10;99.90;;;;;;4990544;28;20034;-87
2022/01/07 02:21:47;;;;;;;22.05;5.28;;;-0.20;99.90;;;;;;5006691;28;20042;-87
2022/01/07 02:24:17;;;;;;;24.02;5.78;;;-0.10;99.90;;;;;;5006466;28;20121;-86
2022/01/07 02:26:47;;;;;;;13.82;6.00;;;-0.10;99.90;;;;;;4993410;28;20030;-87
2022/01/07 02:29:12;;;;;;;14.48;5.22;;;-0.10;99.90;;;;;;4984074;28;20090;-86
2022/01/07 02:32:00;;;;;;;11.43;5.55;;;-0.10;99.90;;;;;;5006690;28;20510;-87
2022/01/07 02:34:25;;;;;;;21.92;5.60;;;-0.10;99.90;;;;;;4990639;28;20238;-87
2022/01/07 02:36:53;;;;;;;18.65;5.00;;;-0.10;99.90;;;;;;4989623;28;20073;-85
2022/01/07 02:39:19;;;;;;;21.35;6.18;;;0.00;99.90;;;;;;4989910;28;20057;-86
2022/01/07 02:41:51;;;;;;;13.55;5.80;;;0.00;99.90;;;;;;4991463;28;20488;-86
2022/01/07 02:44:21;;;;;;;15.10;5.25;;;0.00;99.90;;;;;;5005460;28;20055;-86
2022/01/07 02:46:49;;;;;;;17.10;5.50;;;0.00;99.90;;;;;;4989526;28;20026;-86
2022/01/07 02:49:17;;;;;;;19.05;5.28;;;0.00;99.90;;;;;;5006261;28;20494;-86
2022/01/07 02:51:44;;;;;;;12.60;4.95;;;0.00;99.90;;;;;;4957937;28;20059;-86
2022/01/07 02:54:11;;;;;;;16.98;4.78;;;-0.10;99.90;;;;;;4973336;28;20062;-86
2022/01/07 02:56:37;;;;;;;19.90;5.78;;;-0.10;99.90;;;;;;4972953;28;20498;-86
2022/01/07 02:59:11;;;;;;;14.57;6.15;;;0.00;99.90;;;;;;4973458;28;20075;-87
2022/01/07 03:01:38;;;;;;;13.73;4.85;;;-0.10;99.90;;;;;;4989935;28;20435;-86
2022/01/07 03:04:05;;;;;;;21.30;6.45;;;-0.10;99.90;;;;;;4989765;28;20117;-87
2022/01/07 03:06:35;;;;;;;11.95;4.70;;;-0.10;99.90;;;;;;5004944;28;20027;-86
2022/01/07 03:09:05;;;;;;;20.15;5.25;;;-0.10;99.90;;;;;;5006500;28;20073;-86
2022/01/07 03:11:37;;;;;;;15.50;5.25;;;-0.10;99.90;;;;;;5005890;28;20033;-87
2022/01/07 03:14:05;;;;;;;13.57;4.90;;;-0.10;99.90;;;;;;5007176;28;20539;-87
2022/01/07 03:16:33;;;;;;;13.13;5.05;;;-0.10;99.90;;;;;;4992824;28;20081;-86
2022/01/07 03:18:58;;;;;;;20.05;5.38;;;-0.10;99.90;;;;;;5010255;28;20085;-85
2022/01/07 03:21:25;;;;;;;24.80;5.82;;;-0.10;99.90;;;;;;4991953;28;20027;-86
2022/01/07 03:23:51;;;;;;;17.67;5.63;;;-0.10;99.90;;;;;;5009714;28;20033;-86
2022/01/07 03:26:18;;;;;;;16.95;5.60;;;-0.10;99.90;;;;;;5008476;28;20427;-87
2022/01/07 03:28:46;;;;;;;17.15;6.22;;;-0.10;99.90;;;;;;5009938;28;20554;-86
2022/01/07 03:31:11;;;;;;;20.40;5.40;;;-0.10;99.90;;;;;;5009361;28;20039;-87
2022/01/07 03:33:37;;;;;;;23.13;4.88;;;-0.10;99.90;;;;;;4994228;28;20092;-87
2022/01/07 03:36:03;;;;;;;11.88;4.75;;;-0.10;99.90;;;;;;5009164;28;20033;-87
2022/01/07 03:38:32;;;;;;;16.80;5.75;;;0.00;99.90;;;;;;4993712;28;20073;-86
2022/01/07 03:41:02;;;;;;;13.85;4.90;;;0.00;99.90;;;;;;5009429;28;20026;-86
2022/01/07 03:43:28;;;;;;;13.35;5.20;;;0.00;99.90;;;;;;4993584;28;20415;-86
2022/01/07 03:45:53;;;;;;;15.05;5.15;;;0.00;99.90;;;;;;5009199;28;20034;-86
2022/01/07 03:48:19;;;;;;;13.02;4.35;;;0.10;99.90;;;;;;5009165;28;20070;-85
2022/01/07 03:50:45;;;;;;;15.85;5.43;;;0.10;99.90;;;;;;5105009;23;20515;-78
2022/01/07 03:53:13;;;;;;;15.88;4.60;;;0.10;99.90;;;;;;4993808;28;20026;-78
2022/01/07 03:55:50;;;;;;;20.38;5.47;;;0.10;99.90;;;;;;5001887;28;20033;-78
2022/01/07 03:58:19;;;;;;;15.50;4.80;;;0.10;99.90;;;;;;5006366;28;20049;-79
2022/01/07 04:00:44;;;;;;;17.85;4.35;;;0.10;99.90;;;;;;4995944;28;20026;-78
2022/01/07 04:03:14;;;;;;;19.23;5.55;;;0.10;99.90;;;;;;4979247;28;20369;-78
2022/01/07 04:05:43;;;;;;;19.50;4.90;;;0.10;99.90;;;;;;4995270;28;20519;-78
2022/01/07 04:08:09;;;;;;;13.60;4.75;;;0.10;99.90;;;;;;5007111;28;20041;-79
2022/01/07 04:10:43;;;;;;;9.93;4.55;;;0.10;99.90;;;;;;4977178;28;20038;-77
2022/01/07 04:13:12;;;;;;;12.45;4.13;;;0.10;99.90;;;;;;5000435;28;20044;-78
2022/01/07 04:15:47;;;;;;;11.52;4.18;;;0.10;99.90;;;;;;4995675;28;20115;-77
2022/01/07 04:18:12;;;;;;;12.23;4.22;;;0.20;99.90;;;;;;4979745;28;20558;-79
2022/01/07 04:20:44;;;;;;;15.98;4.47;;;0.20;99.90;;;;;;4969495;28;20113;-77
2022/01/07 04:23:10;;;;;;;13.93;3.83;;;0.20;99.90;;;;;;4991276;28;20022;-78
2022/01/07 04:25:39;;;;;;;14.77;3.72;;;0.30;99.90;;;;;;4995098;28;20037;-79
2022/01/07 04:28:09;;;;;;;8.90;4.03;;;0.30;99.90;;;;;;4996003;28;20034;-78
2022/01/07 04:30:44;;;;;;;15.85;4.10;;;0.30;99.90;;;;;;4995594;28;20034;-79
2022/01/07 04:33:14;;;;;;;21.80;4.22;;;0.30;99.90;;;;;;5011629;28;20038;-78
2022/01/07 04:35:42;;;;;;;13.40;4.40;;;0.40;99.90;;;;;;4987534;28;20030;-79
2022/01/07 04:38:09;;;;;;;17.27;4.63;;;0.40;99.90;;;;;;4970917;28;20038;-77
2022/01/07 04:40:35;;;;;;;7.65;3.58;;;0.40;99.90;;;;;;4994333;28;20044;-78
2022/01/07 04:43:04;;;;;;;15.45;4.10;;;0.40;99.90;;;;;;5011672;28;20029;-78
2022/01/07 04:45:43;;;;;;;12.88;4.13;;;0.40;99.90;;;;;;4966504;28;20030;-78
2022/01/07 04:48:09;;;;;;;18.80;4.50;;;0.40;99.90;;;;;;4986386;28;20030;-78
2022/01/07 04:50:35;;;;;;;13.45;3.88;;;0.40;99.90;;;;;;4991572;28;20042;-79
2022/01/07 04:53:01;;;;;;;14.27;4.38;;;0.50;99.90;;;;;;4995093;28;20563;-80
2022/01/07 04:55:37;;;;;;;13.95;3.97;;;0.40;99.90;;;;;;4993174;28;20041;-80
2022/01/07 04:58:11;;;;;;;6.85;3.72;;;0.50;99.90;;;;;;4978820;28;20044;-81
2022/01/07 05:00:43;;;;;;;10.75;3.63;;;0.50;99.90;;;;;;4962175;28;20481;-80
2022/01/07 05:03:18;;;;;;;13.15;4.50;;;0.50;99.90;;;;;;4979098;28;20049;-79
2022/01/07 05:05:58;;;;;;;13.10;4.45;;;0.50;99.90;;;;;;4986663;28;20029;-80
2022/01/07 05:08:24;;;;;;;14.90;4.10;;;0.50;99.90;;;;;;4983032;28;20034;-80
2022/01/07 05:10:49;;;;;;;11.95;4.40;;;0.50;99.90;;;;;;4961276;28;20422;-80
2022/01/07 05:13:18;;;;;;;10.77;4.15;;;0.50;99.90;;;;;;4969412;28;20553;-80
2022/01/07 05:15:43;;;;;;;7.95;3.67;;;0.50;99.90;;;;;;4978206;28;20030;-79
2022/01/07 05:18:10;;;;;;;14.38;3.97;;;0.50;99.90;;;;;;4975471;28;20094;-80
2022/01/07 05:20:39;;;;;;;14.52;4.72;;;0.50;99.90;;;;;;4966762;28;20041;-80
2022/01/07 05:23:05;;;;;;;8.68;3.55;;;0.50;99.90;;;;;;4969074;28;20069;-80
2022/01/07 05:25:34;;;;;;;11.00;3.20;;;0.50;99.90;;;;;;4975911;28;20482;-80
2022/01/07 05:28:00;;;;;;;7.55;3.42;;;0.50;99.90;;;;;;4961915;28;20469;-80
2022/01/07 05:30:26;;;;;;;13.35;3.72;;;0.50;99.90;;;;;;4975840;28;20026;-80
2022/01/07 05:32:56;;;;;;;8.13;3.75;;;0.50;99.90;;;;;;4966284;28;20053;-79
2022/01/07 05:35:29;;;;;;;15.73;4.40;;;0.60;99.90;;;;;;4978670;28;20060;-79
2022/01/07 05:37:55;;;;;;;13.35;4.85;;;0.60;99.90;;;;;;4979689;28;20034;-80
2022/01/07 05:40:21;;;;;;;8.35;4.07;;;0.60;99.90;;;;;;4999256;28;20552;-79
2022/01/07 05:42:46;;;;;;;10.00;3.42;;;0.60;99.90;;;;;;4983391;28;20038;-80
2022/01/07 05:45:18;;;;;;;10.02;3.90;;;0.60;99.90;;;;;;4973818;28;20551;-80
2022/01/07 05:47:54;;;;;;;22.65;4.75;;;0.60;99.90;;;;;;4976371;28;20468;-80
2022/01/07 05:50:25;;;;;;;10.20;3.70;;;0.60;99.90;;;;;;4967352;28;20076;-80
2022/01/07 05:52:51;;;;;;;8.13;3.30;;;0.60;99.90;;;;;;4971224;28;20061;-80
2022/01/07 05:55:17;;;;;;;6.85;3.15;;;0.60;99.90;;;;;;4979500;28;20034;-81
2022/01/07 05:57:42;;;;;;;10.18;3.63;;;0.70;99.90;;;;;;4983359;28;20125;-80
2022/01/07 06:00:12;;;;;;;13.68;3.42;;;0.70;99.90;;;;;;4978944;28;20034;-80
2022/01/07 06:02:42;;;;;;;7.93;3.55;;;0.70;99.90;;;;;;4988882;28;20110;-79
2022/01/07 06:05:16;;;;;;;10.50;3.88;;;0.70;99.90;;;;;;4964296;28;20144;-80
2022/01/07 06:07:42;;;;;;;9.85;4.05;;;0.70;99.90;;;;;;4980111;28;20068;-80
2022/01/07 06:10:09;;;;;;;14.75;3.72;;;0.70;99.90;;;;;;4974057;28;20026;-80
2022/01/07 06:12:34;;;;;;;12.90;3.55;;;0.70;99.90;;;;;;4980547;28;20042;-81
2022/01/07 06:15:04;;;;;;;7.75;3.28;;;0.70;99.90;;;;;;4994394;28;20028;-80
2022/01/07 06:17:31;;;;;;;7.88;3.47;;;0.70;99.90;;;;;;5005777;28;20048;-80
2022/01/07 06:20:02;;;;;;;12.45;3.30;;;0.80;99.90;;;;;;4964419;28;20062;-80
2022/01/07 06:22:28;;;;;;;10.02;4.05;;;0.80;99.90;;;;;;4960235;28;20042;-80
2022/01/07 06:24:53;;;;;;;14.10;4.40;;;0.80;99.90;;;;;;4961601;28;20035;-80
2022/01/07 06:27:20;;;;;;;10.75;3.75;;;0.80;99.90;;;;;;4979182;28;20087;-80
2022/01/07 06:29:56;;;;;;;11.35;4.10;;;0.80;99.90;;;;;;4977684;28;20069;-80
2022/01/07 06:32:26;;;;;;;8.43;3.38;;;0.80;99.90;;;;;;4972286;28;20030;-80
2022/01/07 06:35:01;;;;;;;10.80;3.58;;;0.80;99.90;;;;;;4959222;28;20049;-80
2022/01/07 06:37:27;;;;;;;14.00;4.03;;;0.80;99.90;;;;;;4960997;28;20038;-79
2022/01/07 06:39:53;;;;;;;11.07;3.35;;;0.90;99.90;;;;;;4992773;28;20036;-80
2022/01/07 06:42:22;;;;;;;8.25;3.70;;;0.90;99.90;;;;;;4965158;28;20026;-80
2022/01/07 06:44:47;;;;;;;11.30;3.38;;;0.90;99.90;;;;;;4980874;28;20441;-81
2022/01/07 06:47:14;;;;;;;13.40;3.58;;;0.90;99.90;;;;;;4980460;28;20034;-80
2022/01/07 06:49:39;;;;;;;10.90;3.78;;;0.90;99.90;;;;;;4987831;28;20042;-80
2022/01/07 06:52:06;;;;;;;12.05;3.63;;;0.90;99.90;;;;;;4995614;28;20042;-80
2022/01/07 06:54:31;;;;;;;8.20;3.00;;;0.90;99.90;;;;;;5011396;28;20416;-81
2022/01/07 06:56:58;;;;;;;10.30;3.60;;;0.90;99.90;;;;;;4985259;28;20084;-80
2022/01/07 06:59:27;;;;;;;7.93;3.33;;;0.90;99.90;;;;;;4995677;28;20026;-80
2022/01/07 07:01:54;;;;;;;8.32;3.35;;;0.90;99.90;;;;;;4979487;28;20038;-80
2022/01/07 07:04:20;;;;;;;7.47;3.35;;;0.90;99.90;;;;;;4991803;28;20030;-81
2022/01/07 07:06:45;;;;;;;7.68;3.30;;;0.90;99.90;;;;;;4980041;28;20034;-81
2022/01/07 07:09:20;;;;;;;8.45;4.03;;;0.90;99.90;;;;;;4978149;28;20500;-80
2022/01/07 07:11:47;;;;;;;11.32;3.67;;;0.90;99.90;;;;;;4983226;28;20437;-81
2022/01/07 07:14:24;;;;;;;10.45;3.70;;;0.90;99.90;;;;;;5013614;28;20061;-80
2022/01/07 07:16:56;;;;;;;15.65;3.97;;;0.90;99.90;;;;;;4970761;28;20034;-81
2022/01/07 07:19:22;;;;;;;9.40;3.80;;;0.90;99.90;;;;;;4994522;28;20132;-81
2022/01/07 07:21:48;;;;;;;8.27;3.72;;;0.90;99.90;;;;;;4982642;28;20022;-80
2022/01/07 07:24:14;;;;;;;11.75;3.97;;;0.90;99.90;;;;;;4988091;28;20516;-81
2022/01/07 07:26:40;;;;;;;18.42;3.85;;;0.90;99.90;;;;;;4995086;28;20023;-79
2022/01/07 07:29:12;;;;;;;6.15;3.50;;;0.90;99.90;;;;;;4978866;28;20065;-81
2022/01/07 07:31:44;;;;;;;8.32;3.28;;;0.90;99.90;;;;;;4994537;28;20031;-80
2022/01/07 07:36:40;;;;;;;10.00;3.50;;;0.90;99.90;;;;;;5004910;28;20517;-80
2022/01/07 07:39:11;;;;;;;12.13;3.70;;;0.90;99.90;;;;;;4965469;28;20516;-80
2022/01/07 07:41:38;;;;;;;7.60;3.72;;;0.90;99.90;;;;;;4970424;28;20190;-80
2022/01/07 07:44:05;;;;;;;8.45;3.72;;;0.90;99.90;;;;;;4979171;28;20034;-79
2022/01/07 07:46:44;;;;;;;10.73;3.63;;;0.90;99.90;;;;;;4993890;28;20166;-80
2022/01/07 07:49:10;;;;;;;11.95;3.65;;;0.90;99.90;;;;;;4994136;28;20109;-80
2022/01/07 07:51:37;;;;;;;10.38;3.97;;;1.00;99.90;;;;;;4996923;28;20188;-79
2022/01/07 07:54:04;;;;;;;14.43;4.13;;;1.00;99.90;;;;;;4996023;28;20038;-81
2022/01/07 07:56:30;;;;;;;13.48;4.90;;;1.00;99.90;;;;;;4996318;28;20038;-79
2022/01/07 07:58:59;;;;;;;16.73;4.63;;;1.00;99.90;;;;;;4997938;28;20050;-81
2022/01/07 08:01:26;;;;;;;9.30;4.25;;;1.00;99.90;;;;;;4970657;28;20479;-80
2022/01/07 08:03:55;;;;;;;12.40;4.10;;;1.00;99.90;;;;;;5013745;28;20400;-79
2022/01/07 08:06:21;;;;;;;10.40;4.07;;;1.00;99.90;;;;;;4982154;28;20046;-80
2022/01/07 08:08:50;;;;;;;12.77;4.63;;;1.00;99.90;;;;;;4962396;28;20097;-80
2022/01/07 08:11:16;;;;;;;10.55;4.20;;;1.00;99.90;;;;;;5006113;28;20563;-80
2022/01/07 08:16:29;;;;;;;23.02;5.72;;;1.00;99.90;;;;;;5012127;28;20029;-80
2022/01/07 08:18:59;;;;;;;27.70;6.38;;;1.00;99.90;;;;;;4996871;28;20136;-81
2022/01/07 08:21:28;;;;;;;17.05;6.50;;;1.00;99.90;;;;;;5004734;28;20165;-80
2022/01/07 08:23:59;;;;;;;15.38;5.72;;;1.00;99.90;;;;;;4993612;28;20033;-81
2022/01/07 08:26:28;;;;;;;7.47;4.07;;;1.00;99.90;;;;;;4998588;28;20030;-80
2022/01/07 08:29:04;;;;;;;9.32;4.65;;;1.00;99.90;;;;;;4994948;28;20516;-80
2022/01/07 08:36:44;;;;;;;12.30;5.07;;;1.00;99.90;;;;;;5007340;28;20445;-80
2022/01/07 08:39:13;;;;;;;14.40;5.18;;;1.00;99.90;;;;;;5012842;28;20065;-80
2022/01/07 08:41:39;;;;;;;18.63;4.13;;;1.00;99.90;;;;;;4996401;28;20034;-81
2022/01/07 08:44:06;;;;;;;9.73;3.83;;;1.00;99.90;;;;;;5010882;28;20080;-80
2022/01/07 08:46:38;;;;;;;8.70;3.72;;;1.00;99.90;;;;;;5010233;28;20049;-81
2022/01/07 08:49:05;;;;;;;10.75;3.67;;;1.10;99.90;;;;;;4993305;28;20048;-81
2022/01/07 08:51:31;;;;;;;12.82;4.03;;;1.10;99.90;;;;;;5011149;28;20181;-81
2022/01/07 08:53:57;;;;;;;6.55;3.47;;;1.10;99.90;;;;;;4978651;28;20058;-81
2022/01/07 08:56:26;;;;;;;8.68;3.58;;;1.10;99.90;;;;;;4976486;28;20374;-81
2022/01/07 08:58:59;;;;;;;11.95;3.90;;;1.10;99.90;;;;;;4993170;28;20038;-80
2022/01/07 09:01:32;;;;;;;10.75;3.70;;;1.10;99.90;;;;;;4961845;28;20030;-81
2022/01/07 09:03:58;;;;;;;9.02;4.40;;;1.20;99.90;;;;;;4977717;28;20030;-80
2022/01/07 09:06:23;;;;;;;9.98;4.68;;;1.20;99.90;;;;;;4996339;28;20030;-80
2022/01/07 09:08:49;;;;;;;13.45;4.45;;;1.20;99.90;;;;;;4979865;28;20038;-81
2022/01/07 09:11:15;;;;;;;11.02;4.10;;;1.20;99.90;;;;;;4982843;28;20034;-81
2022/01/07 09:13:42;;;;;;;9.55;4.68;;;1.20;99.90;;;;;;4986218;28;20516;-80
2022/01/07 09:16:11;;;;;;;12.93;3.75;;;1.20;99.90;;;;;;4997699;28;20057;-82
2022/01/07 09:18:37;;;;;;;11.80;4.90;;;1.20;99.90;;;;;;4976610;28;20027;-79
2022/01/07 09:21:03;;;;;;;7.43;3.60;;;1.20;99.90;;;;;;4976488;28;20034;-81
2022/01/07 09:23:28;;;;;;;10.00;3.47;;;1.30;99.90;;;;;;4960702;28;20034;-80
2022/01/07 09:25:56;;;;;;;8.38;3.33;;;1.30;99.90;;;;;;4983554;28;20117;-81
2022/01/07 09:28:22;;;;;;;13.70;3.78;;;1.30;99.90;;;;;;4998042;28;20034;-81
2022/01/07 09:30:48;;;;;;;8.55;3.67;;;1.30;99.90;;;;;;4960478;28;20039;-81
2022/01/07 09:33:14;;;;;;;7.07;3.35;;;1.40;99.90;;;;;;4986564;28;20040;-81
2022/01/07 09:35:39;;;;;;;11.85;4.10;;;1.40;99.90;;;;;;5001948;28;20492;-81
2022/01/07 09:38:05;;;;;;;8.15;3.70;;;1.40;99.90;;;;;;4995462;28;20165;-81
2022/01/07 09:40:31;;;;;;;6.97;4.70;;;1.50;99.90;;;;;;4983635;28;20026;-81
2022/01/07 09:43:03;;;;;;;9.93;3.22;;;1.40;99.90;;;;;;4992502;28;20037;-81
2022/01/07 09:45:30;;;;;;;7.65;3.30;;;1.50;99.90;;;;;;4960479;28;20348;-81
2022/01/07 09:47:57;;;;;;;5.82;3.17;;;1.50;99.90;;;;;;4976016;28;20027;-82
2022/01/07 09:50:24;;;;;;;7.47;2.53;;;1.50;99.90;;;;;;4991946;28;20040;-80
2022/01/07 09:52:50;;;;;;;8.63;3.58;;;1.40;99.90;;;;;;4992122;28;20033;-81
2022/01/07 09:55:16;;;;;;;6.32;3.00;;;1.50;99.90;;;;;;4975638;28;20469;-81
2022/01/07 09:57:41;;;;;;;6.47;3.33;;;1.50;99.90;;;;;;4999726;28;20030;-81
2022/01/07 10:00:10;;;;;;;6.88;3.65;;;1.60;99.90;;;;;;4994083;28;20041;-81
2022/01/07 10:03:08;;;;;;;7.80;2.45;;;1.70;99.90;;;;;;4996429;28;20050;-81
2022/01/07 10:05:43;;;;;;;6.90;3.35;;;1.80;99.90;;;;;;4994960;28;20084;-80
2022/01/07 10:08:19;;;;;;;7.57;3.08;;;1.80;99.90;;;;;;5012200;28;20082;-81
2022/01/07 10:10:45;;;;;;;7.40;2.95;;;1.90;99.90;;;;;;5007484;28;20045;-82
2022/01/07 10:13:17;;;;;;;9.07;3.15;;;1.90;99.90;;;;;;4994846;28;20076;-81
2022/01/07 10:15:43;;;;;;;8.48;2.85;;;1.90;99.90;;;;;;4996890;28;20136;-82
2022/01/07 10:18:12;;;;;;;5.53;2.90;;;2.00;99.90;;;;;;4994795;28;20113;-81
2022/01/07 10:20:40;;;;;;;5.95;2.80;;;2.10;99.90;;;;;;4992088;28;20062;-81
2022/01/07 10:23:24;;;;;;;5.22;2.83;;;2.20;99.90;;;;;;4992132;28;20066;-81
2022/01/07 10:25:57;;;;;;;7.28;3.00;;;2.10;99.90;;;;;;4977036;28;20026;-82
2022/01/07 10:28:33;;;;;;;5.00;2.55;;;2.00;99.90;;;;;;4959919;28;20121;-82
2022/01/07 10:31:03;;;;;;;7.00;2.65;;;1.90;99.90;;;;;;4980618;28;20022;-80
2022/01/07 10:33:35;;;;;;;6.30;2.88;;;1.80;99.90;;;;;;5010697;28;20033;-80
2022/01/07 10:36:24;;;;;;;6.50;2.85;;;1.80;99.90;;;;;;5010227;28;20030;-80
2022/01/07 10:38:59;;;;;;;8.40;2.75;;;1.80;99.90;;;;;;4985000;28;20037;-81
2022/01/07 10:41:25;;;;;;;6.68;2.67;;;1.80;99.90;;;;;;4988665;28;20038;-81
2022/01/07 10:44:01;;;;;;;6.30;2.83;;;1.80;99.90;;;;;;4959977;28;20091;-80
2022/01/07 10:46:39;;;;;;;6.13;2.70;;;1.80;99.90;;;;;;4991117;28;20117;-80
2022/01/07 10:49:07;;;;;;;4.95;2.28;;;1.80;99.90;;;;;;4975790;28;20065;-81
2022/01/07 10:51:52;;;;;;;6.68;2.85;;;1.80;99.90;;;;;;4991365;28;20781;-81
2022/01/07 10:54:19;;;;;;;5.05;2.40;;;1.80;99.90;;;;;;5005586;28;20041;-82
2022/01/07 10:56:51;;;;;;;6.65;2.70;;;1.80;99.90;;;;;;4974675;28;20047;-81
2022/01/07 10:59:18;;;;;;;8.07;2.97;;;1.80;99.90;;;;;;4979777;28;20056;-81
2022/01/07 11:01:49;;;;;;;4.78;3.08;;;1.80;99.90;;;;;;4966542;28;20034;-82
2022/01/07 11:04:20;;;;;;;4.32;2.67;;;1.70;99.90;;;;;;4959271;28;20452;-82
2022/01/07 11:06:48;;;;;;;7.90;3.22;;;1.80;99.90;;;;;;4959136;28;20030;-81
2022/01/07 11:09:21;;;;;;;7.78;3.80;;;1.80;99.90;;;;;;4975373;28;20066;-81
2022/01/07 11:12:00;;;;;;;6.30;3.08;;;1.90;99.90;;;;;;4993658;28;20053;-83
2022/01/07 11:14:31;;;;;;;7.97;3.40;;;1.90;99.90;;;;;;4998420;28;20041;-81
2022/01/07 11:17:02;;;;;;;6.10;3.38;;;2.00;99.90;;;;;;4975487;28;20058;-82
2022/01/07 11:19:38;;;;;;;8.05;3.30;;;2.00;99.90;;;;;;4991294;28;20030;-81
2022/01/07 11:22:11;;;;;;;4.60;3.03;;;2.10;99.90;;;;;;4975618;28;20031;-81
2022/01/07 11:25:04;;;;;;;7.38;3.75;;;2.10;99.90;;;;;;4976636;28;20183;-81
2022/01/07 11:27:30;;;;;;;7.65;3.95;;;2.10;99.90;;;;;;4978168;28;20414;-82
2022/01/07 11:30:11;;;;;;;8.02;3.58;;;2.10;99.90;;;;;;4974932;28;20599;-82
2022/01/07 11:32:42;;;;;;;9.80;3.63;;;2.20;99.90;;;;;;4975027;28;20080;-81
2022/01/07 11:35:16;;;;;;;;;;;2.20;99.90;;;;;;4993238;28;20568;-82
2022/01/07 11:37:47;;;;;;;5.03;3.25;;;2.20;99.90;;;;;;4994932;28;19914;-82
2022/01/07 11:40:50;;;;;;;5.70;3.03;;;2.20;99.90;;;;;;4998892;28;20103;-82
2022/01/07 11:43:20;;;;;;;7.85;3.38;;;2.20;99.90;;;;;;4998350;28;20389;-82
2022/01/07 11:45:47;;;;;;;6.73;3.23;;;2.20;99.90;;;;;;5013042;28;20057;-82
2022/01/07 11:48:24;;;;;;;5.75;2.92;;;2.20;99.90;;;;;;5007715;28;20444;-81
2022/01/07 11:50:56;;;;;;;4.88;2.90;;;2.20;99.90;;;;;;4997987;28;20034;-82
2022/01/07 11:53:23;;;;;;;8.98;3.28;;;2.20;99.90;;;;;;5015034;28;20509;-82
2022/01/07 11:56:06;;;;;;;5.25;2.70;;;2.20;99.90;;;;;;4997474;28;20037;-81
2022/01/07 11:58:40;;;;;;;5.38;2.78;;;2.10;99.90;;;;;;4996425;28;20066;-81
2022/01/07 12:01:06;;;;;;;4.60;2.70;;;2.10;99.90;;;;;;4962213;28;20064;-82
2022/01/07 12:03:35;;;;;;;8.57;3.00;;;2.00;99.90;;;;;;4978288;28;20125;-80
2022/01/07 12:06:24;;;;;;;5.95;2.92;;;2.10;99.90;;;;;;5009062;28;20061;-81
2022/01/07 12:09:08;;;;;;;6.35;2.75;;;2.10;99.90;;;;;;5001919;28;20042;-82
2022/01/07 12:11:44;;;;;;;7.07;2.90;;;2.10;99.90;;;;;;4994022;28;20037;-81
2022/01/07 12:14:17;;;;;;;5.57;3.08;;;2.00;99.90;;;;;;4994102;28;20027;-81
2022/01/07 12:16:46;;;;;;;5.45;3.20;;;2.10;99.90;;;;;;4993629;28;20054;-82
2022/01/07 12:19:11;;;;;;;4.85;2.80;;;2.00;99.90;;;;;;4982579;28;20694;-81
2022/01/07 12:21:47;;;;;;;5.70;2.75;;;2.00;99.90;;;;;;4994469;28;20072;-82
2022/01/07 12:24:20;;;;;;;6.05;2.50;;;2.10;99.90;;;;;;4978894;28;20080;-81
2022/01/07 12:27:06;;;;;;;7.55;2.78;;;2.10;99.90;;;;;;4994400;28;20025;-81
2022/01/07 12:29:35;;;;;;;5.22;2.78;;;2.10;99.90;;;;;;4981056;28;20486;-82
2022/01/07 12:32:03;;;;;;;5.28;2.58;;;2.10;99.90;;;;;;4993505;28;20485;-82
2022/01/07 12:34:30;;;;;;;4.40;3.15;;;2.10;99.90;;;;;;4985778;28;20489;-81
2022/01/07 12:37:05;;;;;;;4.05;2.72;;;2.10;99.90;;;;;;4961776;28;20412;-81
2022/01/07 12:39:34;;;;;;;3.63;2.47;;;2.10;99.90;;;;;;4962946;28;20069;-81
2022/01/07 12:42:00;;;;;;;6.00;2.65;;;2.10;99.90;;;;;;4962604;28;20031;-81
2022/01/07 12:45:05;;;;;;;4.07;2.30;;;2.10;99.90;;;;;;4982583;28;20018;-82
2022/01/07 12:47:32;;;;;;;4.35;2.13;;;2.10;99.90;;;;;;4975935;28;20056;-82
2022/01/07 12:50:04;;;;;;;3.40;2.28;;;2.10;99.90;;;;;;4978030;28;20061;-82
2022/01/07 12:52:32;;;;;;;9.65;2.55;;;2.10;99.90;;;;;;4977940;28;20085;-82
2022/01/07 12:55:07;;;;;;;4.03;2.28;;;2.20;99.90;;;;;;4962521;28;20034;-81
2022/01/07 12:57:42;;;;;;;3.80;2.03;;;2.20;99.90;;;;;;4993887;28;20073;-82
2022/01/07 13:00:28;;;;;;;5.28;2.72;;;2.20;99.90;;;;;;4978611;28;20453;-82
2022/01/07 13:02:56;;;;;;;5.43;2.30;;;2.20;99.90;;;;;;4994172;28;20029;-82
2022/01/07 13:05:27;;;;;;;4.50;2.60;;;2.20;99.90;;;;;;5005322;28;20030;-82
2022/01/07 13:08:00;;;;;;;3.25;2.30;;;2.10;99.90;;;;;;4978096;28;20409;-81
2022/01/07 13:10:35;;;;;;;5.60;2.30;;;2.10;99.90;;;;;;4994034;28;20034;-82